Aviation Digital Data Service (ADDS)

Output produced by TAFs form (2047 UTC 29 March 2015)
found at http://www.aviationweather.gov/adds/tafs/
 
KRIC 291724Z 2918/3018 31008G17KT P6SM SKC 
     FM292200 20007KT P6SM SKC 
     FM300900 21010KT P6SM OVC100 
     FM301100 24008KT P6SM -RA OVC050 
     FM301500 24013KT P6SM BKN050